createdAt,value
2023-04-11T00:00:16.912Z,4.90
2023-04-11T00:02:45.476Z,4.50
2023-04-11T00:05:14.275Z,4.30
2023-04-11T00:07:42.685Z,6.65
2023-04-11T00:10:11.840Z,4.03
2023-04-11T00:12:40.109Z,4.85
2023-04-11T00:15:09.694Z,5.85
2023-04-11T00:17:41.694Z,5.57
2023-04-11T00:20:11.677Z,4.80
2023-04-11T00:22:40.345Z,5.22
2023-04-11T00:25:09.295Z,4.90
2023-04-11T00:27:37.606Z,5.85
2023-04-11T00:30:07.122Z,5.90
2023-04-11T00:32:35.620Z,5.78
2023-04-11T00:35:05.877Z,5.47
2023-04-11T00:37:36.426Z,6.00
2023-04-11T00:40:07.821Z,6.47
2023-04-11T00:42:36.215Z,5.50
2023-04-11T00:45:04.973Z,5.68
2023-04-11T00:47:34.250Z,5.65
2023-04-11T00:50:03.118Z,6.20
2023-04-11T00:52:32.975Z,6.70
2023-04-11T00:55:03.624Z,6.47
2023-04-11T00:57:32.398Z,6.30
2023-04-11T01:00:02.120Z,6.15
2023-04-11T01:02:30.754Z,5.78
2023-04-11T01:05:00.941Z,5.97
2023-04-11T01:07:31.485Z,6.22
2023-04-11T01:10:02.721Z,7.03
2023-04-11T01:12:32.018Z,7.50
2023-04-11T01:15:00.730Z,5.95
2023-04-11T01:17:29.179Z,7.30
2023-04-11T01:19:57.950Z,6.18
2023-04-11T01:22:27.342Z,8.68
2023-04-11T01:24:57.544Z,6.70
2023-04-11T01:27:26.179Z,7.43
2023-04-11T01:29:54.872Z,6.47
2023-04-11T01:32:23.179Z,6.10
2023-04-11T01:34:55.024Z,8.48
2023-04-11T01:37:23.761Z,6.47
2023-04-11T01:39:52.241Z,8.10
2023-04-11T01:42:22.564Z,6.47
2023-04-11T01:44:52.282Z,6.43
2023-04-11T01:47:20.736Z,6.85
2023-04-11T01:49:49.057Z,7.28
2023-04-11T01:52:17.564Z,8.65
2023-04-11T01:54:45.855Z,6.72
2023-04-11T01:57:14.157Z,6.82
2023-04-11T01:59:43.905Z,6.95
2023-04-11T02:02:12.399Z,6.45
2023-04-11T02:04:40.931Z,8.35
2023-04-11T02:07:09.305Z,7.95
2023-04-11T02:09:38.391Z,7.50
2023-04-11T02:12:07.196Z,6.30
2023-04-11T02:14:44.648Z,7.60
2023-04-11T02:17:14.331Z,6.65
2023-04-11T02:19:45.633Z,6.82
2023-04-11T02:22:14.935Z,7.20
2023-04-11T02:24:43.448Z,7.07
2023-04-11T02:27:12.763Z,6.80
2023-04-11T02:29:41.254Z,6.93
2023-04-11T02:32:11.356Z,6.47
2023-04-11T02:34:39.750Z,6.78
2023-04-11T02:37:08.083Z,6.72
2023-04-11T02:39:36.674Z,6.63
2023-04-11T02:42:05.197Z,6.72
2023-04-11T02:44:33.489Z,5.65
2023-04-11T02:47:01.989Z,6.10
2023-04-11T02:49:32.423Z,7.43
2023-04-11T02:52:00.744Z,6.32
2023-04-11T02:54:29.088Z,5.10
2023-04-11T02:56:57.985Z,5.32
2023-04-11T02:59:26.725Z,4.97
2023-04-11T03:01:59.582Z,5.57
2023-04-11T03:04:28.341Z,6.10
2023-04-11T03:06:58.777Z,4.38
2023-04-11T03:09:27.563Z,5.10
2023-04-11T03:11:56.205Z,4.00
2023-04-11T03:14:24.480Z,4.35
2023-04-11T03:16:52.735Z,4.85
2023-04-11T03:19:21.247Z,3.45
2023-04-11T03:21:49.623Z,4.28
2023-04-11T03:24:19.611Z,3.28
2023-04-11T03:26:48.064Z,3.88
2023-04-11T03:29:16.731Z,2.90
2023-04-11T03:31:45.539Z,3.03
2023-04-11T03:34:13.842Z,3.08
2023-04-11T03:36:42.165Z,4.07
2023-04-11T03:39:10.727Z,3.75
2023-04-11T03:41:40.464Z,3.33
2023-04-11T03:44:08.750Z,2.95
2023-04-11T03:46:37.183Z,2.30
2023-04-11T03:49:05.545Z,1.45
2023-04-11T03:51:34.033Z,3.03
2023-04-11T03:54:02.452Z,1.77
2023-04-11T03:56:30.793Z,1.90
2023-04-11T03:59:00.552Z,2.13
2023-04-11T04:01:29.225Z,0.80
2023-04-11T04:03:57.781Z,1.05
2023-04-11T04:06:26.885Z,1.80
2023-04-11T04:08:55.529Z,1.27
2023-04-11T04:11:23.784Z,1.67
2023-04-11T04:13:52.110Z,1.00
2023-04-11T04:16:22.714Z,2.05
2023-04-11T04:18:51.257Z,0.90
2023-04-11T04:21:19.521Z,1.35
2023-04-11T04:23:50.235Z,0.90
2023-04-11T04:26:25.369Z,1.35
2023-04-11T04:28:54.183Z,1.55
2023-04-11T04:31:25.911Z,1.10
2023-04-11T04:33:54.498Z,2.03
2023-04-11T04:36:25.139Z,3.15
2023-04-11T04:38:53.574Z,1.10
2023-04-11T04:41:22.993Z,1.70
2023-04-11T04:43:54.878Z,1.55
2023-04-11T04:46:24.957Z,1.58
2023-04-11T04:48:53.347Z,2.42
2023-04-11T04:51:21.746Z,1.85
2023-04-11T04:53:50.023Z,1.35
2023-04-11T04:56:18.495Z,2.92
2023-04-11T04:58:48.060Z,1.60
2023-04-11T05:01:17.143Z,0.90
2023-04-11T05:03:50.970Z,1.83
2023-04-11T05:06:19.949Z,2.05
2023-04-11T05:08:48.768Z,2.63
2023-04-11T05:11:17.433Z,2.78
2023-04-11T05:13:45.794Z,2.97
2023-04-11T05:16:14.197Z,4.05
2023-04-11T05:18:42.541Z,2.17
2023-04-11T05:21:12.542Z,3.15
2023-04-11T05:23:41.509Z,2.05
2023-04-11T05:26:10.634Z,1.88
2023-04-11T05:28:39.087Z,2.55
2023-04-11T05:31:08.938Z,2.80
2023-04-11T05:33:38.754Z,1.65
2023-04-11T05:36:07.983Z,3.08
2023-04-11T05:38:37.763Z,2.75
2023-04-11T05:41:06.541Z,1.45
2023-04-11T05:43:34.885Z,7.10
2023-04-11T05:46:03.487Z,2.90
2023-04-11T05:48:32.259Z,3.03
2023-04-11T05:51:01.320Z,4.50
2023-04-11T05:53:29.742Z,2.63
2023-04-11T05:55:59.608Z,5.38
2023-04-11T05:58:29.879Z,5.43
2023-04-11T06:00:59.551Z,5.93
2023-04-11T06:03:28.138Z,3.78
2023-04-11T06:05:56.731Z,4.57
2023-04-11T06:08:25.371Z,2.92
2023-04-11T06:10:53.655Z,2.75
2023-04-11T06:13:23.391Z,3.33
2023-04-11T06:15:51.775Z,3.72
2023-04-11T06:18:20.154Z,3.28
2023-04-11T06:20:49.677Z,4.13
2023-04-11T06:23:18.140Z,5.50
2023-04-11T06:25:46.517Z,2.05
2023-04-11T06:28:15.348Z,3.00
2023-04-11T06:30:45.113Z,4.57
2023-04-11T06:33:13.448Z,2.95
2023-04-11T06:35:41.729Z,4.22
2023-04-11T06:38:10.427Z,6.40
2023-04-11T06:40:38.800Z,2.83
2023-04-11T06:43:07.210Z,5.10
2023-04-11T06:45:35.521Z,4.20
2023-04-11T06:48:05.548Z,3.42
2023-04-11T06:50:33.904Z,4.50
2023-04-11T06:53:02.220Z,5.38
2023-04-11T06:55:31.103Z,3.38
2023-04-11T06:57:59.858Z,4.13
2023-04-11T07:00:28.666Z,2.72
2023-04-11T07:02:57.220Z,3.80
2023-04-11T07:05:27.660Z,4.25
2023-04-11T07:07:55.989Z,4.45
2023-04-11T07:10:25.104Z,2.85
2023-04-11T07:12:53.355Z,5.82
2023-04-11T07:15:21.824Z,3.95
2023-04-11T07:17:52.600Z,3.40
2023-04-11T07:20:21.603Z,2.75
2023-04-11T07:22:51.424Z,3.75
2023-04-11T07:25:22.646Z,3.63
2023-04-11T07:27:51.851Z,6.57
2023-04-11T07:30:21.367Z,5.28
2023-04-11T07:32:49.771Z,5.18
2023-04-11T07:35:18.280Z,3.20
2023-04-11T07:37:47.584Z,3.33
2023-04-11T07:40:17.915Z,2.83
2023-04-11T07:42:47.569Z,2.83
2023-04-11T07:45:16.072Z,4.05
2023-04-11T07:47:44.439Z,4.60
2023-04-11T07:50:13.693Z,6.22
2023-04-11T07:52:41.972Z,5.20
2023-04-11T07:55:11.107Z,5.68
2023-04-11T07:57:40.909Z,5.20
2023-04-11T08:00:11.806Z,5.93
2023-04-11T08:02:40.407Z,2.85
2023-04-11T08:05:10.216Z,3.97
2023-04-11T08:07:38.648Z,3.90
2023-04-11T08:10:08.382Z,3.45
2023-04-11T08:12:36.844Z,4.00
2023-04-11T08:15:07.824Z,3.45
2023-04-11T08:17:38.797Z,4.50
2023-04-11T08:20:09.730Z,5.30
2023-04-11T08:22:39.489Z,4.20
2023-04-11T08:25:10.305Z,2.28
2023-04-11T08:27:39.255Z,2.92
2023-04-11T08:30:10.618Z,2.55
2023-04-11T08:32:39.127Z,5.13
2023-04-11T08:35:08.090Z,3.85
2023-04-11T08:37:36.442Z,2.08
2023-04-11T08:40:07.057Z,4.40
2023-04-11T08:42:36.154Z,1.63
2023-04-11T08:45:08.801Z,4.78
2023-04-11T08:47:38.942Z,4.30
2023-04-11T08:50:08.351Z,5.53
2023-04-11T08:52:39.542Z,3.78
2023-04-11T08:55:08.621Z,3.83
2023-04-11T08:57:38.261Z,5.43
2023-04-11T09:00:15.013Z,4.13
2023-04-11T09:02:59.244Z,5.10
2023-04-11T09:08:00.943Z,3.45
2023-04-11T09:10:29.696Z,4.25
2023-04-11T09:12:58.512Z,3.50
2023-04-11T09:15:29.057Z,5.03
2023-04-11T09:18:01.085Z,5.43
2023-04-11T09:20:31.330Z,5.57
2023-04-11T09:23:00.286Z,4.53
2023-04-11T09:25:29.404Z,5.38
2023-04-11T09:28:11.894Z,5.88
2023-04-11T09:30:40.286Z,7.63
2023-04-11T09:33:24.708Z,4.55
2023-04-11T09:35:56.411Z,6.65
2023-04-11T09:38:32.798Z,5.20
2023-04-11T09:41:01.774Z,3.47
2023-04-11T09:43:49.617Z,2.72
2023-04-11T09:46:20.884Z,5.32
2023-04-11T09:48:51.853Z,3.47
2023-04-11T09:51:35.070Z,5.20
2023-04-11T09:54:06.040Z,4.78
2023-04-11T09:56:35.640Z,3.33
2023-04-11T09:59:05.682Z,1.83
2023-04-11T10:01:34.543Z,2.95
2023-04-11T10:04:05.083Z,3.85
2023-04-11T10:06:38.949Z,2.40
2023-04-11T10:09:09.884Z,2.42
2023-04-11T10:11:38.412Z,1.98
2023-04-11T10:14:06.736Z,1.95
2023-04-11T10:16:35.267Z,1.20
2023-04-11T10:19:27.385Z,1.75
2023-04-11T10:21:56.146Z,1.95
2023-04-11T10:24:26.845Z,4.80
2023-04-11T10:26:57.662Z,3.38
2023-04-11T10:29:48.426Z,4.28
2023-04-11T10:32:23.283Z,4.15
2023-04-11T10:35:31.298Z,3.40
2023-04-11T10:38:01.043Z,3.13
2023-04-11T10:40:29.403Z,5.70
2023-04-11T10:42:57.917Z,4.70
2023-04-11T10:45:28.505Z,2.53
2023-04-11T10:48:10.683Z,3.00
2023-04-11T10:50:46.371Z,3.20
2023-04-11T10:53:37.808Z,4.03
2023-04-11T10:56:07.055Z,3.40
2023-04-11T10:58:40.617Z,3.80
2023-04-11T11:01:31.327Z,4.20
2023-04-11T11:04:06.430Z,3.90
2023-04-11T11:06:46.102Z,3.10
2023-04-11T11:09:26.735Z,2.45
2023-04-11T11:12:08.097Z,4.70
2023-04-11T11:14:36.680Z,2.55
2023-04-11T11:17:05.949Z,4.28
2023-04-11T11:19:35.684Z,2.42
2023-04-11T11:22:05.072Z,3.53
2023-04-11T11:24:34.910Z,3.50
2023-04-11T11:27:03.443Z,3.35
2023-04-11T11:29:33.996Z,3.83
2023-04-11T11:32:04.276Z,2.63
2023-04-11T11:34:34.126Z,2.97
2023-04-11T11:37:05.609Z,2.97
2023-04-11T11:39:36.360Z,2.30
2023-04-11T11:42:04.973Z,3.00
2023-04-11T11:44:33.803Z,2.45
2023-04-11T11:47:03.131Z,3.85
2023-04-11T11:49:45.806Z,4.88
2023-04-11T11:52:14.674Z,3.60
2023-04-11T11:54:48.391Z,2.47
2023-04-11T11:59:55.260Z,4.00
2023-04-11T12:02:26.308Z,4.53
2023-04-11T12:05:00.383Z,6.43
2023-04-11T12:07:32.723Z,4.45
2023-04-11T12:10:03.463Z,3.38
2023-04-11T12:12:37.074Z,5.28
2023-04-11T12:17:37.025Z,3.85
2023-04-11T12:20:08.084Z,3.13
2023-04-11T12:22:36.958Z,3.90
2023-04-11T12:25:08.189Z,3.72
2023-04-11T12:27:37.421Z,4.50
2023-04-11T12:30:06.888Z,4.90
2023-04-11T12:32:35.376Z,3.20
2023-04-11T12:35:04.597Z,2.60
2023-04-11T12:37:33.412Z,2.60
2023-04-11T12:40:02.121Z,4.10
2023-04-11T12:45:00.505Z,4.10
2023-04-11T12:47:28.938Z,4.40
2023-04-11T12:49:57.218Z,3.70
2023-04-11T12:52:26.177Z,4.45
2023-04-11T12:54:54.761Z,4.43
2023-04-11T12:57:24.090Z,4.78
2023-04-11T12:59:54.157Z,3.67
2023-04-11T13:02:22.758Z,3.58
2023-04-11T13:04:53.496Z,3.47
2023-04-11T13:07:22.392Z,4.95
2023-04-11T13:09:51.065Z,5.30
2023-04-11T13:12:19.432Z,3.10
2023-04-11T13:14:47.742Z,4.13
2023-04-11T13:17:17.755Z,5.40
2023-04-11T13:19:46.277Z,5.65
2023-04-11T13:22:14.566Z,2.30
2023-04-11T13:24:43.027Z,3.85
2023-04-11T13:27:11.300Z,3.05
2023-04-11T13:29:40.421Z,4.70
2023-04-11T13:32:08.832Z,2.47
2023-04-11T13:34:38.639Z,4.90
2023-04-11T13:37:06.980Z,3.40
2023-04-11T13:39:35.326Z,4.20
2023-04-11T13:42:03.737Z,3.30
2023-04-11T13:44:32.195Z,3.20
2023-04-11T13:47:01.494Z,3.33
2023-04-11T13:49:29.925Z,3.92
2023-04-11T13:51:59.672Z,3.55
2023-04-11T13:54:27.970Z,4.57
2023-04-11T13:56:56.584Z,2.38
2023-04-11T13:59:24.964Z,2.90
2023-04-11T14:01:53.341Z,3.67
2023-04-11T14:04:21.914Z,2.95
2023-04-11T14:06:54.000Z,2.85
2023-04-11T14:09:23.684Z,3.35
2023-04-11T14:11:52.321Z,4.18
2023-04-11T14:14:20.869Z,2.90
2023-04-11T14:16:50.427Z,5.82
2023-04-11T14:19:18.930Z,7.38
2023-04-11T14:21:47.251Z,3.25
2023-04-11T14:24:15.615Z,4.38
2023-04-11T14:26:45.328Z,3.20
2023-04-11T14:29:14.269Z,2.33
2023-04-11T14:31:42.713Z,4.30
2023-04-11T14:34:11.204Z,3.55
2023-04-11T14:36:39.618Z,4.00
2023-04-11T14:39:08.375Z,3.42
2023-04-11T14:41:36.867Z,4.47
2023-04-11T14:44:07.006Z,3.80
2023-04-11T14:46:35.761Z,3.83
2023-04-11T14:49:04.224Z,2.70
2023-04-11T14:51:35.151Z,3.35
2023-04-11T14:54:03.647Z,5.45
2023-04-11T14:56:32.013Z,2.20
2023-04-11T14:59:00.479Z,3.78
2023-04-11T15:01:30.890Z,5.72
2023-04-11T15:03:59.641Z,1.95
2023-04-11T15:06:28.326Z,4.20
2023-04-11T15:08:56.818Z,5.10
2023-04-11T15:11:27.035Z,3.33
2023-04-11T15:13:55.861Z,2.40
2023-04-11T15:16:24.658Z,3.42
2023-04-11T15:18:55.121Z,2.38
2023-04-11T15:21:24.103Z,5.28
2023-04-11T15:23:52.978Z,3.78
2023-04-11T15:26:21.704Z,2.75
2023-04-11T15:28:51.325Z,5.25
2023-04-11T15:31:26.884Z,2.92
2023-04-11T15:34:00.290Z,4.97
2023-04-11T15:36:33.344Z,4.57
2023-04-11T15:39:01.921Z,6.63
2023-04-11T15:41:32.218Z,3.40
2023-04-11T15:44:01.680Z,3.75
2023-04-11T15:46:30.340Z,2.85
2023-04-11T15:49:00.520Z,4.60
2023-04-11T15:51:29.270Z,1.75
2023-04-11T15:53:57.984Z,2.60
2023-04-11T15:56:28.418Z,1.98
2023-04-11T15:58:57.727Z,1.80
2023-04-11T16:01:29.386Z,3.08
2023-04-11T16:04:00.919Z,1.38
2023-04-11T16:06:48.144Z,1.85
2023-04-11T16:09:16.521Z,2.42
2023-04-11T16:11:44.882Z,2.28
2023-04-11T16:14:13.507Z,2.47
2023-04-11T16:16:42.579Z,2.17
2023-04-11T16:19:10.984Z,4.85
2023-04-11T16:21:41.029Z,4.18
2023-04-11T16:24:09.322Z,4.55
2023-04-11T16:26:37.815Z,3.60
2023-04-11T16:29:06.461Z,4.35
2023-04-11T16:31:35.744Z,2.95
2023-04-11T16:34:04.170Z,0.95
2023-04-11T16:36:32.767Z,3.03
2023-04-11T16:39:04.336Z,3.30
2023-04-11T16:41:36.492Z,2.70
2023-04-11T16:44:05.901Z,1.98
2023-04-11T16:46:34.466Z,2.35
2023-04-11T16:49:02.818Z,4.63
2023-04-11T16:51:31.480Z,4.85
2023-04-11T16:53:59.864Z,3.10
2023-04-11T16:56:31.249Z,1.73
2023-04-11T16:58:59.647Z,14.00
2023-04-11T17:01:28.061Z,3.00
2023-04-11T17:03:56.781Z,5.13
2023-04-11T17:06:26.490Z,3.22
2023-04-11T17:08:54.777Z,6.78
2023-04-11T17:11:23.383Z,2.83
2023-04-11T17:13:55.214Z,3.72
2023-04-11T17:16:24.274Z,3.50
2023-04-11T17:18:52.692Z,3.67
2023-04-11T17:21:21.073Z,2.38
2023-04-11T17:23:50.402Z,3.90
2023-04-11T17:26:20.262Z,1.38
2023-04-11T17:28:48.832Z,1.80
2023-04-11T17:31:19.762Z,1.50
2023-04-11T17:33:48.130Z,2.72
2023-04-11T17:36:16.978Z,2.28
2023-04-11T17:38:45.871Z,3.17
2023-04-11T17:41:15.609Z,3.22
2023-04-11T17:43:44.643Z,2.65
2023-04-11T17:46:13.976Z,3.25
2023-04-11T17:48:43.924Z,4.90
2023-04-11T17:51:12.353Z,3.40
2023-04-11T17:53:41.235Z,3.38
2023-04-11T17:56:12.199Z,1.85
2023-04-11T17:58:44.423Z,3.70
2023-04-11T18:01:12.897Z,4.35
2023-04-11T18:03:41.695Z,4.85
2023-04-11T18:06:12.157Z,3.33
2023-04-11T18:11:12.882Z,3.88
2023-04-11T18:13:41.463Z,2.20
2023-04-11T18:16:11.459Z,3.95
2023-04-11T18:18:40.093Z,4.75
2023-04-11T18:21:08.681Z,5.70
2023-04-11T18:23:39.583Z,4.47
2023-04-11T18:26:07.923Z,4.82
2023-04-11T18:28:36.593Z,3.55
2023-04-11T18:31:05.268Z,1.70
2023-04-11T18:33:34.163Z,5.05
2023-04-11T18:36:03.719Z,1.70
2023-04-11T18:38:32.397Z,5.00
2023-04-11T18:41:06.674Z,14.70
2023-04-11T18:43:38.300Z,3.72
2023-04-11T18:46:08.261Z,9.30
2023-04-11T18:48:36.954Z,17.05
2023-04-11T18:51:06.028Z,10.50
2023-04-11T18:53:36.738Z,51.45
2023-04-11T18:56:07.387Z,44.80
2023-04-11T18:58:40.133Z,14.88
2023-04-11T19:01:15.613Z,13.77
2023-04-11T19:03:46.800Z,11.30
2023-04-11T19:06:15.727Z,6.35
2023-04-11T19:08:44.074Z,6.72
2023-04-11T19:11:13.793Z,5.93
2023-04-11T19:13:42.143Z,7.20
2023-04-11T19:16:10.945Z,13.60
2023-04-11T19:18:39.284Z,13.15
2023-04-11T19:21:08.091Z,10.43
2023-04-11T19:23:36.476Z,7.07
2023-04-11T19:26:05.032Z,7.25
2023-04-11T19:28:34.811Z,11.70
2023-04-11T19:31:03.152Z,7.10
2023-04-11T19:33:31.627Z,6.18
2023-04-11T19:36:00.030Z,6.32
2023-04-11T19:38:28.550Z,5.47
2023-04-11T19:40:57.003Z,3.75
2023-04-11T19:43:25.428Z,4.43
2023-04-11T19:45:55.572Z,4.72
2023-04-11T19:48:23.964Z,6.03
2023-04-11T19:50:53.549Z,5.05
2023-04-11T19:53:21.899Z,5.00
2023-04-11T19:55:52.641Z,6.18
2023-04-11T19:58:21.541Z,5.85
2023-04-11T20:00:49.927Z,5.78
2023-04-11T20:03:20.772Z,5.05
2023-04-11T20:05:49.882Z,5.00
2023-04-11T20:08:19.090Z,6.03
2023-04-11T20:10:47.486Z,3.35
2023-04-11T20:13:16.905Z,3.33
2023-04-11T20:15:45.256Z,3.42
2023-04-11T20:18:13.728Z,4.32
2023-04-11T20:20:43.633Z,7.10
2023-04-11T20:23:15.676Z,4.20
2023-04-11T20:25:44.151Z,4.28
2023-04-11T20:28:12.487Z,6.88
2023-04-11T20:30:41.282Z,4.20
2023-04-11T20:33:09.658Z,3.90
2023-04-11T20:35:38.056Z,4.22
2023-04-11T20:38:08.027Z,4.72
2023-04-11T20:40:37.199Z,6.53
2023-04-11T20:43:06.726Z,4.38
2023-04-11T20:45:36.343Z,5.35
2023-04-11T20:48:06.509Z,5.20
2023-04-11T20:50:34.924Z,4.38
2023-04-11T20:53:03.412Z,2.53
2023-04-11T20:55:34.068Z,3.60
2023-04-11T20:58:02.644Z,3.25
2023-04-11T21:00:30.970Z,4.07
2023-04-11T21:02:59.324Z,2.63
2023-04-11T21:05:29.034Z,6.82
2023-04-11T21:07:58.423Z,3.75
2023-04-11T21:10:26.727Z,6.93
2023-04-11T21:12:56.816Z,3.45
2023-04-11T21:15:25.583Z,4.53
2023-04-11T21:17:54.066Z,4.15
2023-04-11T21:20:22.773Z,3.53
2023-04-11T21:22:53.082Z,5.60
2023-04-11T21:25:21.496Z,3.40
2023-04-11T21:27:49.989Z,13.35
2023-04-11T21:30:19.998Z,22.77
2023-04-11T21:32:48.633Z,4.18
2023-04-11T21:35:17.040Z,4.53
2023-04-11T21:37:47.685Z,3.58
2023-04-11T21:40:17.349Z,3.63
2023-04-11T21:42:45.772Z,3.42
2023-04-11T21:45:14.326Z,5.53
2023-04-11T21:47:44.075Z,3.00
2023-04-11T21:50:13.237Z,3.60
2023-04-11T21:52:41.656Z,2.05
2023-04-11T21:55:11.974Z,4.20
2023-04-11T21:57:40.694Z,2.88
2023-04-11T22:00:11.227Z,3.15
2023-04-11T22:02:39.962Z,4.65
2023-04-11T22:05:11.092Z,2.42
2023-04-11T22:07:48.528Z,4.38
2023-04-11T22:10:24.013Z,2.83
2023-04-11T22:12:54.565Z,3.78
2023-04-11T22:15:24.526Z,3.88
2023-04-11T22:17:56.597Z,2.08
2023-04-11T22:20:26.609Z,5.15
2023-04-11T22:22:57.011Z,4.05
2023-04-11T22:25:25.806Z,4.20
2023-04-11T22:27:55.059Z,2.58
2023-04-11T22:30:25.029Z,4.35
2023-04-11T22:32:54.474Z,5.07
2023-04-11T22:35:23.433Z,3.63
2023-04-11T22:37:55.508Z,3.40
2023-04-11T22:40:24.222Z,3.28
2023-04-11T22:42:53.231Z,3.40
2023-04-11T22:45:22.133Z,4.88
2023-04-11T22:47:54.361Z,5.18
2023-04-11T22:50:23.203Z,3.58
2023-04-11T22:52:54.889Z,4.72
2023-04-11T22:55:24.919Z,3.25
2023-04-11T22:57:53.348Z,3.42
2023-04-11T23:00:22.101Z,3.53
2023-04-11T23:02:51.289Z,5.50
2023-04-11T23:05:20.851Z,3.17
2023-04-11T23:07:49.326Z,3.72
2023-04-11T23:10:19.762Z,5.10
2023-04-11T23:12:49.556Z,1.98
2023-04-11T23:15:19.377Z,2.88
2023-04-11T23:17:47.753Z,4.10
2023-04-11T23:20:17.677Z,4.97
2023-04-11T23:22:46.482Z,2.55
2023-04-11T23:25:15.541Z,2.50
2023-04-11T23:27:46.062Z,4.55
2023-04-11T23:30:17.525Z,3.60
2023-04-11T23:32:46.111Z,3.80
2023-04-11T23:35:17.048Z,2.65
2023-04-11T23:37:45.797Z,1.42
2023-04-11T23:40:14.584Z,4.32
2023-04-11T23:42:44.788Z,5.15
2023-04-11T23:45:15.079Z,3.00
2023-04-11T23:47:43.844Z,2.17
2023-04-11T23:50:12.872Z,3.17
2023-04-11T23:52:41.291Z,9.20
2023-04-11T23:55:10.261Z,4.85
2023-04-11T23:57:38.714Z,3.17
